Time;durP1;ratioP1;P1;durP2;ratioP2;P2;SDS_P1;SDS_P2;PMS_P1;PMS_P2;Temp;Humidity;BMP_temperature;BMP_pressure;BME280_temperature;BME280_humidity;BME280_pressure;Samples;Min_cycle;Max_cycle;Signal;HPM_P1;HPM_P2
2021/06/11 05:04:27;;;;;;;32.93;19.63;;;;;;;18.24;86.94;100310.31;1781878;79;21970;-62
2021/06/11 05:07:01;;;;;;;32.30;15.90;;;;;;;18.47;86.90;100309.72;1782073;80;21982;-60
2021/06/11 05:17:58;;;;;;;22.00;14.18;;;;;;;18.98;85.68;100310.50;1782528;80;21402;-63
2021/06/11 05:20:31;;;;;;;21.68;13.83;;;;;;;19.18;84.85;100304.04;1786849;80;21192;-61
2021/06/11 05:23:05;;;;;;;21.90;14.23;;;;;;;19.31;84.37;100310.31;1782358;80;21434;-63
2021/06/11 05:29:47;;;;;;;18.25;13.35;;;;;;;19.49;83.08;100303.22;1781577;80;21168;-61
2021/06/11 05:32:20;;;;;;;22.02;13.32;;;;;;;19.54;82.51;100298.16;1782611;80;21299;-62
2021/06/11 05:34:53;;;;;;;27.02;13.75;;;;;;;19.58;82.43;100299.94;1781690;80;21319;-62
2021/06/11 05:37:27;;;;;;;20.27;12.78;;;;;;;19.62;82.16;100307.83;1782212;80;21311;-58
2021/06/11 05:40:00;;;;;;;18.50;13.75;;;;;;;19.66;82.01;100309.89;1781499;80;21323;-68
2021/06/11 05:42:33;;;;;;;22.07;13.33;;;;;;;19.69;81.68;100306.86;1782498;80;21287;-63
2021/06/11 05:45:08;;;;;;;22.65;13.80;;;;;;;19.71;81.54;100306.16;1781850;80;21955;-67
2021/06/11 05:47:41;;;;;;;20.35;13.48;;;;;;;19.77;81.44;100310.71;1782359;80;21323;-74
2021/06/11 05:50:14;;;;;;;28.25;13.20;;;;;;;19.83;81.15;100311.75;1781616;80;21311;-72
2021/06/11 05:52:47;;;;;;;27.63;14.50;;;;;;;19.85;81.04;100319.84;1782483;80;21375;-69
2021/06/11 05:55:20;;;;;;;19.17;13.62;;;;;;;19.89;81.01;100316.30;1781604;80;21315;-66
2021/06/11 05:57:53;;;;;;;23.75;14.53;;;;;;;19.90;80.79;100308.63;1782482;80;21414;-65
2021/06/11 06:00:27;;;;;;;19.17;13.18;;;;;;;19.92;81.03;100316.72;1780563;79;21388;-62
2021/06/11 06:03:00;;;;;;;21.25;13.50;;;;;;;19.98;81.02;100313.80;1782769;80;21326;-67
2021/06/11 06:05:33;;;;;;;19.73;14.85;;;;;;;20.07;81.01;100312.13;1782060;80;21303;-65
2021/06/11 06:08:07;;;;;;;22.07;14.40;;;;;;;20.15;80.67;100308.48;1782438;80;21315;-63
2021/06/11 06:10:40;;;;;;;22.32;14.33;;;;;;;20.20;80.48;100313.21;1781576;80;21266;-67
2021/06/11 06:13:14;;;;;;;29.15;16.10;;;;;;;20.21;80.18;100310.84;1782049;80;21452;-67
2021/06/11 06:15:47;;;;;;;54.93;16.87;;;;;;;20.21;80.27;100306.36;1781296;80;21505;-65
2021/06/11 06:18:20;;;;;;;27.50;17.57;;;;;;;20.25;80.27;100314.80;1782076;80;21247;-64
2021/06/11 06:20:53;;;;;;;36.88;19.07;;;;;;;20.29;80.13;100317.38;1781226;80;21331;-66
2021/06/11 06:23:26;;;;;;;30.55;20.40;;;;;;;20.31;79.84;100315.33;1781986;80;21288;-64
2021/06/11 06:25:59;;;;;;;33.00;21.62;;;;;;;20.31;79.84;100315.33;1781459;80;22145;-65
2021/06/11 06:28:32;;;;;;;29.02;19.40;;;;;;;20.29;79.90;100313.38;1782127;80;21323;-60
2021/06/11 06:31:05;;;;;;;29.80;20.35;;;;;;;20.32;79.90;100323.13;1781117;80;21311;-64
2021/06/11 06:33:39;;;;;;;26.60;19.42;;;;;;;20.36;79.88;100319.55;1781840;80;21315;-62
2021/06/11 06:36:12;;;;;;;28.30;19.35;;;;;;;20.35;79.20;100320.05;1781472;80;21381;-63
2021/06/11 06:38:46;;;;;;;;;;;;;;;20.33;79.05;100320.77;1784688;80;21201;-63
2021/06/11 06:41:19;;;;;;;28.27;18.73;;;;;;;20.36;78.80;100324.38;1781021;80;20723;-61
2021/06/11 06:48:02;;;;;;;32.50;24.32;;;;;;;20.55;77.79;100328.95;1782070;80;21467;-62
2021/06/11 06:50:36;;;;;;;35.75;24.23;;;;;;;20.76;76.88;100327.99;1781940;80;21204;-62
2021/06/11 07:01:28;;;;;;;39.23;28.17;;;;;;;21.33;74.74;100331.52;1780563;79;22208;-64
2021/06/11 07:04:03;;;;;;;48.83;32.08;;;;;;;21.45;73.85;100336.04;1782030;80;21311;-67
2021/06/11 07:06:36;;;;;;;45.90;31.97;;;;;;;21.55;73.55;100341.47;1781541;80;21299;-70
2021/06/11 07:09:09;;;;;;;48.23;34.05;;;;;;;21.57;72.80;100336.25;1782209;80;21307;-72
2021/06/11 07:11:43;;;;;;;63.80;37.40;;;;;;;21.54;72.44;100338.52;1781146;80;21361;-65
2021/06/11 07:14:17;;;;;;;50.38;33.78;;;;;;;21.50;72.60;100340.75;1782285;80;21330;-70
2021/06/11 07:16:50;;;;;;;54.38;33.42;;;;;;;21.48;72.64;100336.14;1781485;80;22139;-66
2021/06/11 07:19:24;;;;;;;48.15;33.50;;;;;;;21.48;72.66;100338.30;1781984;80;22103;-63
2021/06/11 07:21:58;;;;;;;46.77;32.45;;;;;;;21.55;72.79;100334.30;1780986;80;22149;-69
2021/06/11 07:24:33;;;;;;;47.33;32.10;;;;;;;21.63;72.06;100336.77;1781995;80;21334;-65
2021/06/11 07:27:07;;;;;;;41.40;29.80;;;;;;;21.69;72.11;100337.77;1781167;80;21216;-64
2021/06/11 07:29:44;;;;;;;42.25;31.57;;;;;;;21.81;71.90;100336.95;1781806;80;22179;-66
2021/06/11 07:32:17;;;;;;;39.10;29.85;;;;;;;21.94;71.14;100330.83;1780740;80;21205;-69
2021/06/11 07:34:51;;;;;;;40.45;29.75;;;;;;;22.14;70.49;100328.92;1782170;80;21558;-67
2021/06/11 07:37:24;;;;;;;33.83;26.95;;;;;;;22.41;69.21;100330.49;1781324;80;21329;-70
2021/06/11 07:39:57;;;;;;;37.53;27.85;;;;;;;22.77;68.20;100329.45;1782190;80;22094;-68
2021/06/11 07:42:31;;;;;;;41.95;30.45;;;;;;;23.13;66.53;100330.16;1780866;80;21319;-67
2021/06/11 07:45:06;;;;;;;33.98;27.30;;;;;;;23.31;66.01;100323.55;1782132;80;21352;-70
2021/06/11 07:47:39;;;;;;;36.10;28.90;;;;;;;23.56;64.81;100322.78;1781331;80;21342;-70
2021/06/11 07:50:14;;;;;;;36.28;27.15;;;;;;;23.80;64.33;100317.42;1782145;80;21291;-69
2021/06/11 07:52:48;;;;;;;31.73;26.70;;;;;;;24.13;62.86;100323.80;1780950;80;21506;-69
2021/06/11 07:55:21;;;;;;;33.25;26.40;;;;;;;24.49;61.80;100321.13;1782158;80;21556;-65
2021/06/11 07:57:54;;;;;;;33.20;24.43;;;;;;;25.14;60.96;100317.28;1781409;80;21370;-72
2021/06/11 08:00:33;;;;;;;26.20;23.20;;;;;;;25.66;59.48;100320.48;1781551;79;21871;-65
2021/06/11 08:03:07;;;;;;;29.35;23.92;;;;;;;26.00;57.60;100316.98;1759897;80;21333;-69
2021/06/11 08:05:40;;;;;;;32.33;24.92;;;;;;;26.13;56.92;100317.27;1778914;80;21291;-69
2021/06/11 08:08:16;;;;;;;26.90;23.22;;;;;;;26.20;56.50;100313.93;1777769;80;21189;-67
2021/06/11 08:14:58;;;;;;;35.08;24.10;;;;;;;25.84;56.35;100319.02;1778527;80;21116;-67
2021/06/11 08:17:31;;;;;;;;;;;;;;;25.64;57.39;100323.92;1780809;80;21307;-70
2021/06/11 08:20:06;;;;;;;23.73;19.75;;;;;;;25.73;56.09;100316.34;1778790;80;20646;-70
2021/06/11 08:22:40;;;;;;;23.55;18.85;;;;;;;25.80;55.98;100313.01;1777862;80;21949;-72
2021/06/11 08:32:09;;;;;;;25.77;19.05;;;;;;;25.97;55.46;100300.01;1748437;82;21949;-68
2021/06/11 08:35:29;;;;;;;20.95;16.85;;;;;;;26.08;55.39;100305.88;1748939;82;21189;-70
2021/06/11 08:39:26;;;;;;;;;;;;;;;;;;;;;
2021/06/11 08:45:56;;;;;;;22.75;15.35;;;;;;;26.99;53.37;100298.33;1716866;82;21407;-67
2021/06/11 08:49:04;;;;;;;29.20;14.33;;;;;;;28.10;50.74;100291.23;1678058;83;21208;-67
2021/06/11 08:51:50;;;;;;;17.12;14.25;;;;;;;28.95;47.13;100294.11;1712409;83;21196;-67
2021/06/11 08:55:05;;;;;;;19.70;14.58;;;;;;;29.21;46.85;100293.30;1690407;83;21179;-64
2021/06/11 08:58:05;;;;;;;16.07;13.03;;;;;;;29.20;47.04;100294.38;1684949;83;21302;-61
2021/06/11 09:01:53;;;;;;;18.70;12.25;;;;;;;29.66;46.13;100287.45;1713115;83;21430;-65
2021/06/11 09:04:57;;;;;;;14.15;12.63;;;;;;;30.21;44.11;100277.52;1702979;83;21323;-67
2021/06/11 09:07:36;;;;;;;14.90;11.90;;;;;;;30.64;42.50;100277.94;1702646;84;21342;-68
2021/06/11 09:10:10;;;;;;;15.10;12.93;;;;;;;30.51;42.30;100269.01;1702660;84;21264;-69
2021/06/11 09:12:43;;;;;;;15.13;13.53;;;;;;;30.24;43.28;100264.28;1702424;84;21510;-68
2021/06/11 09:15:20;;;;;;;;;;;;;;;30.29;43.54;100264.31;1705191;84;22063;-70
2021/06/11 09:17:53;;;;;;;20.82;13.90;;;;;;;30.21;43.23;100263.48;1702514;84;20278;-65
2021/06/11 09:20:41;;;;;;;13.53;12.03;;;;;;;30.31;43.56;100260.80;1702690;84;21354;-67
2021/06/11 09:27:19;;;;;;;16.40;13.20;;;;;;;30.22;42.53;100257.52;1702947;84;21556;-64
2021/06/11 09:29:55;;;;;;;14.65;13.15;;;;;;;30.27;43.18;100261.06;1701616;84;21217;-67
2021/06/11 09:32:33;;;;;;;14.07;11.45;;;;;;;30.31;43.15;100245.95;1657534;84;21374;-66
2021/06/11 09:35:08;;;;;;;15.32;12.88;;;;;;;30.35;42.66;100242.22;1701674;84;21248;-65
2021/06/11 09:37:41;;;;;;;14.73;13.28;;;;;;;29.98;42.71;100242.31;1702937;84;21522;-65
2021/06/11 09:44:29;;;;;;;15.53;13.78;;;;;;;29.45;45.24;100246.02;1701513;84;21187;-64
2021/06/11 09:47:01;;;;;;;17.12;13.93;;;;;;;29.22;44.91;100239.66;1702878;84;21330;-63
2021/06/11 09:49:45;;;;;;;17.45;13.15;;;;;;;29.03;45.45;100239.22;1702300;84;21339;-64
2021/06/11 09:52:18;;;;;;;14.23;12.68;;;;;;;28.76;45.43;100237.60;1731378;82;22103;-66
2021/06/11 09:58:47;;;;;;;17.63;13.80;;;;;;;28.34;47.31;100239.59;1738100;82;20195;-69
2021/06/11 10:01:20;;;;;;;16.25;12.75;;;;;;;28.15;47.49;100234.25;1736839;81;22022;-71
2021/06/11 10:03:58;;;;;;;;;;;;;;;28.02;47.50;100236.78;1739445;81;21209;-67
2021/06/11 10:10:38;;;;;;;22.32;14.10;;;;;;;28.07;48.03;100237.37;1736290;82;21554;-71
2021/06/11 10:13:13;;;;;;;16.20;12.68;;;;;;;28.05;48.40;100230.08;1737741;82;21383;-70
2021/06/11 10:15:59;;;;;;;19.80;13.75;;;;;;;28.11;48.20;100229.06;1736944;82;21213;-72
2021/06/11 10:18:35;;;;;;;16.15;13.35;;;;;;;28.04;47.93;100224.41;1737682;82;21241;-67
2021/06/11 10:21:13;;;;;;;15.10;11.83;;;;;;;27.90;48.10;100235.23;1737716;82;22110;-67
2021/06/11 10:27:56;;;;;;;17.48;13.35;;;;;;;27.84;47.59;100221.44;1737766;82;21137;-64
2021/06/11 10:30:31;;;;;;;24.57;13.62;;;;;;;27.97;47.70;100222.40;1736755;82;21469;-61
2021/06/11 10:33:04;;;;;;;14.50;11.33;;;;;;;28.06;47.33;100216.09;1737893;82;21999;-62
2021/06/11 10:35:48;;;;;;;14.25;12.20;;;;;;;28.18;47.26;100216.25;1736663;82;21212;-70
2021/06/11 10:38:35;;;;;;;14.20;11.70;;;;;;;28.20;46.73;100214.13;1737773;82;21885;-72
2021/06/11 10:41:09;;;;;;;16.40;13.00;;;;;;;28.06;46.75;100214.75;1736697;82;21177;-72
2021/06/11 10:43:44;;;;;;;15.08;12.03;;;;;;;27.84;47.18;100219.58;1737549;82;21276;-73
2021/06/11 10:46:32;;;;;;;12.93;11.38;;;;;;;27.61;47.53;100223.02;1736763;82;21300;-66
2021/06/11 10:49:11;;;;;;;12.35;10.72;;;;;;;27.45;47.96;100219.81;1737929;82;21268;-73
2021/06/11 10:51:52;;;;;;;11.65;9.60;;;;;;;27.36;47.83;100218.87;1737883;82;22053;-76
2021/06/11 10:54:28;;;;;;;19.42;9.88;;;;;;;27.22;47.44;100226.16;1737081;82;21229;-64
2021/06/11 10:57:12;;;;;;;17.95;10.90;;;;;;;27.14;47.46;100222.01;1737687;82;21300;-69
2021/06/11 10:59:48;;;;;;;12.98;10.38;;;;;;;27.10;48.16;100224.09;1737700;81;21315;-65
2021/06/11 11:02:22;;;;;;;14.18;9.18;;;;;;;27.02;48.16;100223.96;1726815;82;21240;-64
2021/06/11 11:04:56;;;;;;;11.38;9.98;;;;;;;26.97;47.62;100217.68;1726420;81;21217;-67
2021/06/11 11:07:30;;;;;;;13.28;9.85;;;;;;;26.87;48.60;100211.61;1737567;82;21364;-64
2021/06/11 11:10:13;;;;;;;13.43;8.58;;;;;;;26.80;48.51;100212.30;1737536;82;21208;-65
2021/06/11 11:13:03;;;;;;;8.63;6.87;;;;;;;26.90;47.99;100211.66;1737965;82;22104;-71
2021/06/11 11:15:44;;;;;;;13.08;6.80;;;;;;;26.95;47.02;100205.84;1736552;82;21323;-66
2021/06/11 11:18:41;;;;;;;9.95;6.50;;;;;;;26.93;46.82;100212.52;1737910;82;21320;-69
2021/06/11 11:21:27;;;;;;;8.55;6.50;;;;;;;26.90;45.71;100203.59;1736791;82;21208;-66
2021/06/11 11:24:03;;;;;;;8.35;6.60;;;;;;;26.88;45.99;100195.79;1737721;82;21343;-66
2021/06/11 11:26:52;;;;;;;9.53;7.12;;;;;;;26.87;45.76;100198.73;1736880;82;21978;-71
2021/06/11 11:29:26;;;;;;;11.25;5.83;;;;;;;26.85;46.49;100197.61;1736469;82;21656;-67
2021/06/11 11:31:59;;;;;;;9.35;6.20;;;;;;;26.87;45.74;100190.12;1736676;82;22071;-67
2021/06/11 11:34:33;;;;;;;8.95;5.70;;;;;;;26.89;45.15;100188.55;1737503;82;21334;-63
2021/06/11 11:37:06;;;;;;;13.62;6.17;;;;;;;27.00;45.08;100187.64;1736434;82;21212;-74
2021/06/11 11:39:40;;;;;;;6.75;5.85;;;;;;;27.13;44.45;100186.77;1737814;82;21185;-67
2021/06/11 11:46:23;;;;;;;8.70;7.10;;;;;;;27.15;43.64;100193.27;1736610;82;21173;-76
2021/06/11 11:49:04;;;;;;;10.82;7.35;;;;;;;27.08;43.82;100191.28;1738154;82;21474;-71
2021/06/11 11:51:40;;;;;;;11.15;6.50;;;;;;;27.06;44.24;100190.16;1736915;82;22116;-64
2021/06/11 11:54:14;;;;;;;11.57;6.83;;;;;;;27.09;44.45;100190.20;1737925;82;21303;-67
2021/06/11 11:56:47;;;;;;;9.98;6.47;;;;;;;27.11;44.00;100186.21;1737257;82;21327;-74
2021/06/11 11:59:20;;;;;;;7.20;6.42;;;;;;;27.17;43.85;100181.22;1737809;82;21315;-70
2021/06/11 12:01:53;;;;;;;9.65;5.80;;;;;;;27.14;43.88;100184.91;1737300;81;21318;-68
2021/06/11 12:04:27;;;;;;;7.85;6.05;;;;;;;27.13;43.39;100184.64;1737766;82;21189;-68
2021/06/11 12:07:00;;;;;;;;;;;;;;;27.08;42.86;100175.16;1747390;81;21349;-67
2021/06/11 12:09:33;;;;;;;9.73;7.47;;;;;;;27.04;43.72;100174.00;1751037;82;20205;-67
2021/06/11 12:12:07;;;;;;;15.53;8.18;;;;;;;27.06;43.93;100175.94;1750153;82;21189;-63
2021/06/11 12:14:41;;;;;;;10.85;8.10;;;;;;;27.10;43.83;100167.14;1751067;82;21455;-69
2021/06/11 12:17:15;;;;;;;15.25;7.85;;;;;;;27.14;43.83;100160.72;1749925;82;21149;-66
2021/06/11 12:19:48;;;;;;;10.28;8.25;;;;;;;27.20;42.92;100164.58;1751125;82;21464;-59
2021/06/11 12:22:21;;;;;;;12.88;9.15;;;;;;;27.16;42.84;100155.39;1750130;82;21716;-69
2021/06/11 12:24:55;;;;;;;11.88;8.93;;;;;;;27.10;43.03;100159.59;1751020;82;21372;-67
2021/06/11 12:31:38;;;;;;;11.85;9.20;;;;;;;27.07;42.47;100147.98;1751145;82;21711;-70
2021/06/11 12:34:12;;;;;;;13.48;9.80;;;;;;;26.93;43.54;100143.48;1751147;82;21231;-66
2021/06/11 12:36:45;;;;;;;14.85;9.63;;;;;;;26.94;43.88;100147.78;1750090;82;21212;-68
2021/06/11 12:39:18;;;;;;;19.37;10.85;;;;;;;26.98;43.69;100144.09;1751114;82;21372;-66
2021/06/11 12:41:57;;;;;;;;;;;;;;;26.99;44.16;100153.23;1753204;82;21200;-68
